Airfield :
LOGIN :

Register | Disclaimer

   EN    FR    IT 

 










Legend :    VFR   Marginal VFR   IFR   Intensive IFR   Very Intensive IFR
Visi :
Ceiling :
>= 8 km
>= 3000ft
5 to 8 km
1000 to 3000 ft
1500m to 5 km
500 to 1000 ft
800 to 1500m
200 to 500 ft
< 800m
< 200 ft
Symbols :   Thunderstorms  Fog  Heavy snow  Heavy precipitations  Wind > 20 kt
SIGMETs :     Misc.  Thunderstorms  Icing  Turbulence  Mountain Waves  Volcanic Ashes







- Airport Elevation : 622 ft
- IATA code : BRS
- Download approach charts


EGGD - Bristol Int.

CURRENT METAR :
  • 171150Z AUTO 19010KT 160V230 9999 OVC006 10/08 Q1012

EXPIRED METARs :
  • 171120Z AUTO 18011KT 9999 OVC008 10/08 Q1012
  • 171050Z 18011KT 9999 BKN009 10/07 Q1012
  • 171020Z 18011KT 9999 BKN011 10/07 Q1012
  • 170950Z 19010KT 160V220 9999 SCT013 10/07 Q1012
  • 170920Z AUTO 20011KT 150V230 9999 SCT015 09/06 Q1012

TAF TAF EGGD
Valid from the 17 at 12:00 until the 18 at 12:00 UTC


171102Z 1712/1812 19012KT 9999 SCT007 BKN015
TEMPO 1712/1718 4000 -RADZ BR BKN005
TEMPO 1718/1810 8000 BKN008
PROB40
TEMPO 1719/1809 4000 BR BKN004
ATIS : +44 1275 473 666
No reported NOTAMs for that airfield.



MET'MAP, your aeronautical weather chart ! - Copyright ORBIFLY December 2007 - Disclaimer

ORBIFLY MET'MAP TEAM :

Programming & Development : Alexandra Zaïnal
Concept & Development : Baudouin d'Aumeries
Co-Development & Prog : Marc-Olivier Méhu
Technical & hardware support : Manuel Goepfert

Contact : metmap@orbifly.com




SOURCES & CREDITS :

   NOAA